Rakitna Rakitna

Učna pot


Verjetnost toče več informacij Hail probability


Napoved ravni onesnaženosti z delci PM10 več informacij Air pollution


Moja kamera več informacij My webcam


Cestna kamera več informacij Road camera


ARSO, spremljajte nas več informacij


Obiščite še:

Template documentacija
in prenos

in še drugo stran



Posebna pozornost v zvezi z vremenskimi dogajanji ni potrebna.    Posebna pozornost v zvezi z vremenskimi dogajanji ni potrebna.

METAR v bližini

   
LJLJ - Ljubljana
Posodobljeno: 20-01-2020 18:30
pretežno oblačno  
pretežno oblačno  
   Veter: različen 3.7 km/h
Veter: različen 3.7 km/h
Temperatura: 1°C
Točka rosišča: -2°C
Vlažnost: 81%
Zračni tlak: 1044 hPa
Oblaki: pretežno oblačno
Vidljivost: več kot 10 km
Podrobnosti o oblakih: nekaj oblakov 2300 ft,
pretežno oblačno 5500 ft
LJLJ 201730Z VRB02KT 9999 FEW023 BKN055 01/M02 Q1044 NOSIG
LJCE - Cerklje ob Krki
Posodobljeno: 20-01-2020 19:00
oblačno  
oblačno  
   Veter: Vzhod 3.7 km/h
Veter: Vzhod 3.7 km/h
Temperatura: 2°C
Točka rosišča: 1°C
Vlažnost: 93%
Zračni tlak: 1046 hPa
Oblaki: oblačno
Vidljivost: 6 km
Podrobnosti o oblakih: delno oblačno 2500 ft,
oblačno 5000 ft
LJCE 201800Z 10002KT 6000 SCT025 OVC050 02/01 Q1046 RMK WHT
LJMB - Maribor
Posodobljeno: 20-01-2020 19:00
pretežno oblačno  
pretežno oblačno  
   Veter: Brezveterje
Veter: Brezveterje
Temperatura: 2°C
Točka rosišča: -1°C
Vlažnost: 81%
Zračni tlak: 1046 hPa
Oblaki: pretežno oblačno
Vidljivost: več kot 10 km
Podrobnosti o oblakih: pretežno oblačno 4400 ft
LJMB 201800Z 00000KT 9999 BKN044 02/M01 Q1046
LJPZ - Portorož
Posodobljeno: 20-01-2020 19:00
jasno  
jasno  
   Veter: različen 3.7 km/h
Veter: različen 3.7 km/h
Temperatura: 5°C
Točka rosišča: -2°C
Vlažnost: 61%
Zračni tlak: 1043 hPa
Vidljivost: več kot 10 km
Podrobnosti o oblakih: jasno
LJPZ 201800Z VRB02KT CAVOK 05/M02 Q1043
LDRI - Rijeka, Airport, Croatia
Posodobljeno: 20-01-2020 19:00
jasno  
jasno  
   Veter: različen 9.3 km/h
Veter: različen 9.3 km/h
Temperatura: 6°C
Občutek mraza: 4°C
Točka rosišča: -4°C
Vlažnost: 49%
Zračni tlak: 1042 hPa
Vidljivost: več kot 10 km
Podrobnosti o oblakih: jasno
LDRI 201800Z VRB05KT CAVOK 06/M04 Q1042
LOWK - Klagenfurt, Airport, Avstia
Posodobljeno: 20-01-2020 18:50
pretežno oblačno  
pretežno oblačno  
   Veter: različen 3.7 km/h
Veter: različen 3.7 km/h
Temperatura: 1°C
Točka rosišča: -4°C
Vlažnost: 70%
Zračni tlak: 1045 hPa
Oblaki: pretežno oblačno
Vidljivost: več kot 10 km
Podrobnosti o oblakih: pretežno oblačno 5500 ft
LOWK 201750Z VRB02KT 9999 BKN055 01/M04 Q1045 R10L/19//95 NOSIG

Script developed by  Saratoga-weather.org Adapted for the template by  Weerstation Leuven

Vremenski podatki so objavljeni na:

Weather Underground

Slovenska vremenska mreža

WeatherlinkIP

MapView

Geostik

Oprema, ki se uporablja:

Vremenska postaja
Davis VP2+ ventilirana

Vremenski program
WeatherLink

Vremenski server
Shuttle XS35V4

Ponudnik
Vremensko društvo ZEVS

Davis VP2+ ventilirana

WeatherLink

Shuttle XS35V4

Vremensko društvo ZEVS

Meteorološki podatki vremenske postaje Rakitna so neuradni, meteorološka postaja sama pa ni del državne mreže Agencije Republike Slovenije za okolje (ARSO),
je pa vključena v Vremensko društvo ZEVS. Prikazani podatki so izmerjeni točno, vendar so zgolj informativni in nimajo značaja uradnega podatka.

Podatke meri vremenska postaja "Davis VP2+ ventilirana" od 05.03.2011 dalje.

Opozarjamo, da ne prevzamemo odgovornosti za morebitno nastalo škodo, ki bi nastala zaradi odločitve, sprejete na osnovi teh podatkov!